<?xml version="1.0" encoding="utf-8"?>
<gpx xmlns:xsi="http://www.w3.org/2001/XMLSchema-instance" xmlns:xsd="http://www.w3.org/2001/XMLSchema" version="1.1" creator="Shapelink.com" xmlns="http://www.topografix.com/GPX/1/1" xmlns:gpxtpx="http://www.garmin.com/xmlschemas/TrackPointExtension/v1">
  <metadata>
    <name>Övrigt 3.89 km, 2019-07-23</name>
    <desc></desc>
    <author><name>Marian Moron</name></author> 
    <time>2019-07-23T20:45:28Z</time>
  </metadata>
  <trk>
    <name>Övrigt 3.89 km, 2019-07-23</name>
    <trkseg>
      <trkpt lat="51.229860825682" lon="4.457885519454">
        <ele>19.8</ele>
        <time>2019-07-23T20:45:28Z</time>
      </trkpt>
      <trkpt lat="51.230021674343" lon="4.458466804219">
        <ele>10.6</ele>
        <time>2019-07-23T20:45:58Z</time>
      </trkpt>
      <trkpt lat="51.230114881071" lon="4.458723793273">
        <ele>19.4</ele>
        <time>2019-07-23T20:46:13Z</time>
      </trkpt>
      <trkpt lat="51.230327278417" lon="4.459113467804">
        <ele>2</ele>
        <time>2019-07-23T20:46:56Z</time>
      </trkpt>
      <trkpt lat="51.230353597583" lon="4.459289990618">
        <ele>2.4</ele>
        <time>2019-07-23T20:47:02Z</time>
      </trkpt>
      <trkpt lat="51.230406906467" lon="4.459450839279">
        <ele>6.2</ele>
        <time>2019-07-23T20:47:11Z</time>
      </trkpt>
      <trkpt lat="51.230304563468" lon="4.45966449391">
        <ele>2.6</ele>
        <time>2019-07-23T20:47:47Z</time>
      </trkpt>
      <trkpt lat="51.23029433755" lon="4.459761472493">
        <ele>3.2</ele>
        <time>2019-07-23T20:48:01Z</time>
      </trkpt>
      <trkpt lat="51.230305988391" lon="4.459825174933">
        <ele>4.6</ele>
        <time>2019-07-23T20:48:08Z</time>
      </trkpt>
      <trkpt lat="51.230331050272" lon="4.459821486897">
        <ele>4.8</ele>
        <time>2019-07-23T20:48:10Z</time>
      </trkpt>
      <trkpt lat="51.230379413835" lon="4.459843782751">
        <ele>5.2</ele>
        <time>2019-07-23T20:48:14Z</time>
      </trkpt>
      <trkpt lat="51.23045359365" lon="4.460257597154">
        <ele>5</ele>
        <time>2019-07-23T20:48:40Z</time>
      </trkpt>
      <trkpt lat="51.230446385216" lon="4.460358850506">
        <ele>5</ele>
        <time>2019-07-23T20:48:47Z</time>
      </trkpt>
      <trkpt lat="51.230399195119" lon="4.460698904189">
        <ele>7.2</ele>
        <time>2019-07-23T20:49:16Z</time>
      </trkpt>
      <trkpt lat="51.230280758872" lon="4.46078347756">
        <ele>10.8</ele>
        <time>2019-07-23T20:49:30Z</time>
      </trkpt>
      <trkpt lat="51.229903657191" lon="4.460969807197">
        <ele>19.4</ele>
        <time>2019-07-23T20:50:29Z</time>
      </trkpt>
      <trkpt lat="51.229772312818" lon="4.461017416389">
        <ele>20.4</ele>
        <time>2019-07-23T20:50:37Z</time>
      </trkpt>
      <trkpt lat="51.229739539589" lon="4.461100564837">
        <ele>21</ele>
        <time>2019-07-23T20:50:42Z</time>
      </trkpt>
      <trkpt lat="51.229663683394" lon="4.461166614209">
        <ele>22</ele>
        <time>2019-07-23T20:50:50Z</time>
      </trkpt>
      <trkpt lat="51.229646584318" lon="4.461321427902">
        <ele>24.8</ele>
        <time>2019-07-23T20:51:06Z</time>
      </trkpt>
      <trkpt lat="51.229673657855" lon="4.46123023283">
        <ele>28</ele>
        <time>2019-07-23T20:51:27Z</time>
      </trkpt>
      <trkpt lat="51.229673071122" lon="4.461260156213">
        <ele>23.6</ele>
        <time>2019-07-23T20:51:32Z</time>
      </trkpt>
      <trkpt lat="51.229840373846" lon="4.461934480068">
        <ele>14.6</ele>
        <time>2019-07-23T20:52:07Z</time>
      </trkpt>
      <trkpt lat="51.229854120162" lon="4.462024920769">
        <ele>13.6</ele>
        <time>2019-07-23T20:52:13Z</time>
      </trkpt>
      <trkpt lat="51.230083029851" lon="4.462572426477">
        <ele>3</ele>
        <time>2019-07-23T20:52:39Z</time>
      </trkpt>
      <trkpt lat="51.230110103388" lon="4.462692706742">
        <ele>2.8</ele>
        <time>2019-07-23T20:52:46Z</time>
      </trkpt>
      <trkpt lat="51.230214541862" lon="4.462962603922">
        <ele>0</ele>
        <time>2019-07-23T20:53:09Z</time>
      </trkpt>
      <trkpt lat="51.230325769675" lon="4.463309279306">
        <ele>0</ele>
        <time>2019-07-23T20:53:39Z</time>
      </trkpt>
      <trkpt lat="51.230352340298" lon="4.463408018088">
        <ele>0</ele>
        <time>2019-07-23T20:53:45Z</time>
      </trkpt>
      <trkpt lat="51.230392992513" lon="4.463521341376">
        <ele>0</ele>
        <time>2019-07-23T20:53:51Z</time>
      </trkpt>
      <trkpt lat="51.230391651409" lon="4.463555455709">
        <ele>0</ele>
        <time>2019-07-23T20:53:53Z</time>
      </trkpt>
      <trkpt lat="51.230555182278" lon="4.464176638318">
        <ele>0</ele>
        <time>2019-07-23T20:54:25Z</time>
      </trkpt>
      <trkpt lat="51.230579573607" lon="4.464291973262">
        <ele>0</ele>
        <time>2019-07-23T20:54:31Z</time>
      </trkpt>
      <trkpt lat="51.230676049276" lon="4.464570922894">
        <ele>0</ele>
        <time>2019-07-23T20:54:53Z</time>
      </trkpt>
      <trkpt lat="51.230728436151" lon="4.465004518581">
        <ele>0.8</ele>
        <time>2019-07-23T20:55:16Z</time>
      </trkpt>
      <trkpt lat="51.230750145272" lon="4.465456051534">
        <ele>0.8</ele>
        <time>2019-07-23T20:55:37Z</time>
      </trkpt>
      <trkpt lat="51.23074612196" lon="4.465611368141">
        <ele>1</ele>
        <time>2019-07-23T20:55:44Z</time>
      </trkpt>
      <trkpt lat="51.230742098648" lon="4.46565252327">
        <ele>1</ele>
        <time>2019-07-23T20:55:46Z</time>
      </trkpt>
      <trkpt lat="51.230739667897" lon="4.465709771647">
        <ele>1</ele>
        <time>2019-07-23T20:55:49Z</time>
      </trkpt>
      <trkpt lat="51.230737069508" lon="4.465820412727">
        <ele>1</ele>
        <time>2019-07-23T20:55:54Z</time>
      </trkpt>
      <trkpt lat="51.230745619046" lon="4.465993415143">
        <ele>2.8</ele>
        <time>2019-07-23T20:56:07Z</time>
      </trkpt>
      <trkpt lat="51.230762382846" lon="4.466348304789">
        <ele>1.2</ele>
        <time>2019-07-23T20:56:23Z</time>
      </trkpt>
      <trkpt lat="51.230703961003" lon="4.466787683987">
        <ele>1.4</ele>
        <time>2019-07-23T20:56:57Z</time>
      </trkpt>
      <trkpt lat="51.230656016535" lon="4.46669271706">
        <ele>0.2</ele>
        <time>2019-07-23T20:57:07Z</time>
      </trkpt>
      <trkpt lat="51.230608072067" lon="4.466954399978">
        <ele>5.8</ele>
        <time>2019-07-23T20:57:40Z</time>
      </trkpt>
      <trkpt lat="51.230610921913" lon="4.467225722081">
        <ele>8.4</ele>
        <time>2019-07-23T20:57:52Z</time>
      </trkpt>
      <trkpt lat="51.230606228049" lon="4.467292777281">
        <ele>8</ele>
        <time>2019-07-23T20:57:55Z</time>
      </trkpt>
      <trkpt lat="51.23060782061" lon="4.467389001493">
        <ele>6.4</ele>
        <time>2019-07-23T20:58:02Z</time>
      </trkpt>
      <trkpt lat="51.230498352996" lon="4.46741272227">
        <ele>5.4</ele>
        <time>2019-07-23T20:58:19Z</time>
      </trkpt>
      <trkpt lat="51.230055788676" lon="4.467563680289">
        <ele>5.2</ele>
        <time>2019-07-23T20:58:58Z</time>
      </trkpt>
      <trkpt lat="51.22960702175" lon="4.467686307486">
        <ele>3.4</ele>
        <time>2019-07-23T20:59:31Z</time>
      </trkpt>
      <trkpt lat="51.229228327508" lon="4.467587987799">
        <ele>2.2</ele>
        <time>2019-07-23T20:59:58Z</time>
      </trkpt>
      <trkpt lat="51.22918960313" lon="4.467601734115">
        <ele>0.8</ele>
        <time>2019-07-23T21:00:13Z</time>
      </trkpt>
      <trkpt lat="51.228766736275" lon="4.46741272227">
        <ele>10.6</ele>
        <time>2019-07-23T21:01:06Z</time>
      </trkpt>
      <trkpt lat="51.228647461838" lon="4.467414817745">
        <ele>16.8</ele>
        <time>2019-07-23T21:01:28Z</time>
      </trkpt>
      <trkpt lat="51.228234737082" lon="4.46714031052">
        <ele>11.4</ele>
        <time>2019-07-23T21:02:10Z</time>
      </trkpt>
      <trkpt lat="51.227886636775" lon="4.466718114217">
        <ele>5.2</ele>
        <time>2019-07-23T21:02:51Z</time>
      </trkpt>
      <trkpt lat="51.227883535472" lon="4.46669858439">
        <ele>5.4</ele>
        <time>2019-07-23T21:02:52Z</time>
      </trkpt>
      <trkpt lat="51.227922930402" lon="4.465993918057">
        <ele>4.8</ele>
        <time>2019-07-23T21:03:33Z</time>
      </trkpt>
      <trkpt lat="51.227940448573" lon="4.465276930331">
        <ele>10.2</ele>
        <time>2019-07-23T21:04:22Z</time>
      </trkpt>
      <trkpt lat="51.227877919599" lon="4.464565893754">
        <ele>12.2</ele>
        <time>2019-07-23T21:05:08Z</time>
      </trkpt>
      <trkpt lat="51.227870375889" lon="4.464497581269">
        <ele>12</ele>
        <time>2019-07-23T21:05:12Z</time>
      </trkpt>
      <trkpt lat="51.227794184418" lon="4.463787382882">
        <ele>3</ele>
        <time>2019-07-23T21:05:56Z</time>
      </trkpt>
      <trkpt lat="51.227709778685" lon="4.463314559903">
        <ele>0.2</ele>
        <time>2019-07-23T21:06:25Z</time>
      </trkpt>
      <trkpt lat="51.227677759827" lon="4.463092439553">
        <ele>1.2</ele>
        <time>2019-07-23T21:06:45Z</time>
      </trkpt>
      <trkpt lat="51.227635095956" lon="4.462888340288">
        <ele>2.8</ele>
        <time>2019-07-23T21:07:05Z</time>
      </trkpt>
      <trkpt lat="51.227615733767" lon="4.462719445003">
        <ele>1.8</ele>
        <time>2019-07-23T21:07:18Z</time>
      </trkpt>
      <trkpt lat="51.227567537842" lon="4.462540156162">
        <ele>3.2</ele>
        <time>2019-07-23T21:07:35Z</time>
      </trkpt>
      <trkpt lat="51.227407192095" lon="4.46190749035">
        <ele>0</ele>
        <time>2019-07-23T21:08:19Z</time>
      </trkpt>
      <trkpt lat="51.227269477478" lon="4.461573974549">
        <ele>0</ele>
        <time>2019-07-23T21:09:05Z</time>
      </trkpt>
      <trkpt lat="51.227249696194" lon="4.461564586821">
        <ele>0.4</ele>
        <time>2019-07-23T21:09:07Z</time>
      </trkpt>
      <trkpt lat="51.227148023747" lon="4.461626612881">
        <ele>0.2</ele>
        <time>2019-07-23T21:09:18Z</time>
      </trkpt>
      <trkpt lat="51.226884664449" lon="4.46172644131">
        <ele>0</ele>
        <time>2019-07-23T21:09:45Z</time>
      </trkpt>
      <trkpt lat="51.226836049429" lon="4.461551930152">
        <ele>0</ele>
        <time>2019-07-23T21:09:56Z</time>
      </trkpt>
      <trkpt lat="51.226806964236" lon="4.46136182866">
        <ele>0</ele>
        <time>2019-07-23T21:10:20Z</time>
      </trkpt>
      <trkpt lat="51.226659861891" lon="4.461025798289">
        <ele>0</ele>
        <time>2019-07-23T21:10:44Z</time>
      </trkpt>
      <trkpt lat="51.226577551633" lon="4.460696724895">
        <ele>0</ele>
        <time>2019-07-23T21:11:05Z</time>
      </trkpt>
      <trkpt lat="51.226535977409" lon="4.460591699688">
        <ele>0</ele>
        <time>2019-07-23T21:11:13Z</time>
      </trkpt>
      <trkpt lat="51.226497504488" lon="4.460517100778">
        <ele>0</ele>
        <time>2019-07-23T21:11:21Z</time>
      </trkpt>
      <trkpt lat="51.226470766227" lon="4.460480220418">
        <ele>0</ele>
        <time>2019-07-23T21:11:24Z</time>
      </trkpt>
      <trkpt lat="51.226426845071" lon="4.46043143776">
        <ele>0</ele>
        <time>2019-07-23T21:11:30Z</time>
      </trkpt>
      <trkpt lat="51.22644788364" lon="4.46035600066">
        <ele>0</ele>
        <time>2019-07-23T21:11:36Z</time>
      </trkpt>
      <trkpt lat="51.226472274969" lon="4.460286514709">
        <ele>0</ele>
        <time>2019-07-23T21:11:40Z</time>
      </trkpt>
      <trkpt lat="51.226343026071" lon="4.459964146835">
        <ele>0</ele>
        <time>2019-07-23T21:12:00Z</time>
      </trkpt>
      <trkpt lat="51.226233809914" lon="4.459870940107">
        <ele>0</ele>
        <time>2019-07-23T21:12:14Z</time>
      </trkpt>
      <trkpt lat="51.226100789161" lon="4.459841268181">
        <ele>4</ele>
        <time>2019-07-23T21:12:24Z</time>
      </trkpt>
      <trkpt lat="51.22604387606" lon="4.459848979529">
        <ele>4.8</ele>
        <time>2019-07-23T21:12:31Z</time>
      </trkpt>
      <trkpt lat="51.225853104016" lon="4.459962386636">
        <ele>0</ele>
        <time>2019-07-23T21:13:00Z</time>
      </trkpt>
      <trkpt lat="51.22546384858" lon="4.460315516083">
        <ele>0</ele>
        <time>2019-07-23T21:13:43Z</time>
      </trkpt>
      <trkpt lat="51.225020110794" lon="4.460516346407">
        <ele>0</ele>
        <time>2019-07-23T21:14:22Z</time>
      </trkpt>
      <trkpt lat="51.224906536049" lon="4.460582731055">
        <ele>0</ele>
        <time>2019-07-23T21:14:37Z</time>
      </trkpt>
      <trkpt lat="51.224530356377" lon="4.460934938493">
        <ele>0</ele>
        <time>2019-07-23T21:15:19Z</time>
      </trkpt>
      <trkpt lat="51.224129198643" lon="4.461209780994">
        <ele>0</ele>
        <time>2019-07-23T21:15:53Z</time>
      </trkpt>
      <trkpt lat="51.223702979028" lon="4.461489904092">
        <ele>0</ele>
        <time>2019-07-23T21:16:29Z</time>
      </trkpt>
      <trkpt lat="51.223629302127" lon="4.461547403926">
        <ele>0</ele>
        <time>2019-07-23T21:16:38Z</time>
      </trkpt>
      <trkpt lat="51.223583536953" lon="4.461668857657">
        <ele>0</ele>
        <time>2019-07-23T21:16:49Z</time>
      </trkpt>
      <trkpt lat="51.22355780452" lon="4.461709006958">
        <ele>0</ele>
        <time>2019-07-23T21:16:52Z</time>
      </trkpt>
      <trkpt lat="51.223119514969" lon="4.461881674098">
        <ele>0</ele>
        <time>2019-07-23T21:17:29Z</time>
      </trkpt>
      <trkpt lat="51.222722715823" lon="4.462241844341">
        <ele>0</ele>
        <time>2019-07-23T21:18:11Z</time>
      </trkpt>
      <trkpt lat="51.222296580027" lon="4.462492714608">
        <ele>0</ele>
        <time>2019-07-23T21:18:50Z</time>
      </trkpt>
      <trkpt lat="51.222165487111" lon="4.462747105273">
        <ele>0</ele>
        <time>2019-07-23T21:19:10Z</time>
      </trkpt>
      <trkpt lat="51.222118045557" lon="4.462787170755">
        <ele>1</ele>
        <time>2019-07-23T21:19:21Z</time>
      </trkpt>
      <trkpt lat="51.221754271097" lon="4.462329183739">
        <ele>7.6</ele>
        <time>2019-07-23T21:19:53Z</time>
      </trkpt>
      <trkpt lat="51.221411367568" lon="4.462092143607">
        <ele>5.4</ele>
        <time>2019-07-23T21:20:27Z</time>
      </trkpt>
      <trkpt lat="51.22134749749" lon="4.461877147872">
        <ele>7.2</ele>
        <time>2019-07-23T21:21:09Z</time>
      </trkpt>
      <trkpt lat="51.221288069819" lon="4.461918889734">
        <ele>20.4</ele>
        <time>2019-07-23T21:22:02Z</time>
      </trkpt>
      <trkpt lat="51.221512285644" lon="4.462025004588">
        <ele>8.6</ele>
        <time>2019-07-23T21:22:30Z</time>
      </trkpt>
      <trkpt lat="51.221580430491" lon="4.462106811932">
        <ele>6.8</ele>
        <time>2019-07-23T21:22:40Z</time>
      </trkpt>
      <trkpt lat="51.221924339848" lon="4.46258139511">
        <ele>16</ele>
        <time>2019-07-23T21:23:16Z</time>
      </trkpt>
      <trkpt lat="51.222129361122" lon="4.462717014252">
        <ele>15.4</ele>
        <time>2019-07-23T21:23:42Z</time>
      </trkpt>
      <trkpt lat="51.222475785049" lon="4.463192938534">
        <ele>17.6</ele>
        <time>2019-07-23T21:24:33Z</time>
      </trkpt>
      <trkpt lat="51.222498164722" lon="4.463250103092">
        <ele>18.8</ele>
        <time>2019-07-23T21:24:37Z</time>
      </trkpt>
      <trkpt lat="51.222881469009" lon="4.463614548104">
        <ele>19.8</ele>
        <time>2019-07-23T21:25:30Z</time>
      </trkpt>
      <trkpt lat="51.222933604427" lon="4.463673808137">
        <ele>17.2</ele>
        <time>2019-07-23T21:25:36Z</time>
      </trkpt>
      <trkpt lat="51.223060841669" lon="4.463638604157">
        <ele>10.2</ele>
        <time>2019-07-23T21:25:44Z</time>
      </trkpt>
      <trkpt lat="51.223285979503" lon="4.46342377606">
        <ele>0</ele>
        <time>2019-07-23T21:26:04Z</time>
      </trkpt>
      <trkpt lat="51.223574652139" lon="4.462859841828">
        <ele>0</ele>
        <time>2019-07-23T21:26:52Z</time>
      </trkpt>
      <trkpt lat="51.223695519137" lon="4.462594554693">
        <ele>1.6</ele>
        <time>2019-07-23T21:27:14Z</time>
      </trkpt>
      <trkpt lat="51.223732734773" lon="4.462535713755">
        <ele>0.8</ele>
        <time>2019-07-23T21:27:33Z</time>
      </trkpt>
      <trkpt lat="51.223813955384" lon="4.462449883099">
        <ele>0</ele>
        <time>2019-07-23T21:27:50Z</time>
      </trkpt>
      <trkpt lat="51.223949406888" lon="4.462335134888">
        <ele>0</ele>
        <time>2019-07-23T21:28:11Z</time>
      </trkpt>
      <trkpt lat="51.224063400728" lon="4.462362962796">
        <ele>0</ele>
        <time>2019-07-23T21:28:25Z</time>
      </trkpt>
      <trkpt lat="51.224379817453" lon="4.462170933467">
        <ele>0</ele>
        <time>2019-07-23T21:29:02Z</time>
      </trkpt>
      <trkpt lat="51.224719200584" lon="4.46182618592">
        <ele>0</ele>
        <time>2019-07-23T21:29:59Z</time>
      </trkpt>
      <trkpt lat="51.224711573055" lon="4.461792742139">
        <ele>0</ele>
        <time>2019-07-23T21:30:01Z</time>
      </trkpt>
      <trkpt lat="51.224693132875" lon="4.461666175449">
        <ele>0</ele>
        <time>2019-07-23T21:30:33Z</time>
      </trkpt>
      <trkpt lat="51.224509485446" lon="4.460998473295">
        <ele>2.2</ele>
        <time>2019-07-23T21:31:18Z</time>
      </trkpt>
      <trkpt lat="51.224515268957" lon="4.460925047851">
        <ele>0.2</ele>
        <time>2019-07-23T21:31:23Z</time>
      </trkpt>
      <trkpt lat="51.2245736908" lon="4.460823794499">
        <ele>0</ele>
        <time>2019-07-23T21:31:40Z</time>
      </trkpt>
      <trkpt lat="51.225002927899" lon="4.460588849842">
        <ele>9.8</ele>
        <time>2019-07-23T21:32:23Z</time>
      </trkpt>
      <trkpt lat="51.225322445927" lon="4.46036857351">
        <ele>12.6</ele>
        <time>2019-07-23T21:33:09Z</time>
      </trkpt>
      <trkpt lat="51.225548673408" lon="4.460225745934">
        <ele>18</ele>
        <time>2019-07-23T21:33:42Z</time>
      </trkpt>
      <trkpt lat="51.225966511123" lon="4.459930954511">
        <ele>10</ele>
        <time>2019-07-23T21:34:25Z</time>
      </trkpt>
      <trkpt lat="51.226084612094" lon="4.45976172395">
        <ele>8.2</ele>
        <time>2019-07-23T21:34:40Z</time>
      </trkpt>
      <trkpt lat="51.226088216311" lon="4.459625518075">
        <ele>5.2</ele>
        <time>2019-07-23T21:34:48Z</time>
      </trkpt>
      <trkpt lat="51.225929714582" lon="4.458930155651">
        <ele>7.4</ele>
        <time>2019-07-23T21:35:25Z</time>
      </trkpt>
      <trkpt lat="51.225910436212" lon="4.45873661758">
        <ele>7.2</ele>
        <time>2019-07-23T21:35:43Z</time>
      </trkpt>
      <trkpt lat="51.225946059287" lon="4.458725637291">
        <ele>6</ele>
        <time>2019-07-23T21:37:22Z</time>
      </trkpt>
      <trkpt lat="51.226058628204" lon="4.458651792752">
        <ele>5.8</ele>
        <time>2019-07-23T21:37:38Z</time>
      </trkpt>
      <trkpt lat="51.226230373335" lon="4.458492117557">
        <ele>5.6</ele>
        <time>2019-07-23T21:37:54Z</time>
      </trkpt>
      <trkpt lat="51.22627354012" lon="4.458449537505">
        <ele>5.6</ele>
        <time>2019-07-23T21:38:03Z</time>
      </trkpt>
      <trkpt lat="51.226332800153" lon="4.458468648237">
        <ele>6.6</ele>
        <time>2019-07-23T21:38:08Z</time>
      </trkpt>
      <trkpt lat="51.226369848151" lon="4.458443418718">
        <ele>6.6</ele>
        <time>2019-07-23T21:38:12Z</time>
      </trkpt>
      <trkpt lat="51.226719205743" lon="4.458096575696">
        <ele>2</ele>
        <time>2019-07-23T21:38:44Z</time>
      </trkpt>
      <trkpt lat="51.227133355422" lon="4.45788669292">
        <ele>0</ele>
        <time>2019-07-23T21:39:17Z</time>
      </trkpt>
      <trkpt lat="51.227284229622" lon="4.45780203573">
        <ele>0</ele>
        <time>2019-07-23T21:39:30Z</time>
      </trkpt>
      <trkpt lat="51.22772193244" lon="4.457616209007">
        <ele>0</ele>
        <time>2019-07-23T21:40:04Z</time>
      </trkpt>
      <trkpt lat="51.227997110217" lon="4.457399788349">
        <ele>0</ele>
        <time>2019-07-23T21:40:29Z</time>
      </trkpt>
      <trkpt lat="51.228360884677" lon="4.457242292448">
        <ele>1.8</ele>
        <time>2019-07-23T21:41:01Z</time>
      </trkpt>
      <trkpt lat="51.228589794366" lon="4.457888034024">
        <ele>17.6</ele>
        <time>2019-07-23T21:41:30Z</time>
      </trkpt>
      <trkpt lat="51.228599182094" lon="4.457907731489">
        <ele>17.8</ele>
        <time>2019-07-23T21:41:31Z</time>
      </trkpt>
      <trkpt lat="51.228777046012" lon="4.458177963945">
        <ele>6.8</ele>
        <time>2019-07-23T21:42:10Z</time>
      </trkpt>
      <trkpt lat="51.229224388015" lon="4.458083499932">
        <ele>0</ele>
        <time>2019-07-23T21:42:51Z</time>
      </trkpt>
      <trkpt lat="51.229667790525" lon="4.45794536622">
        <ele>0</ele>
        <time>2019-07-23T21:43:34Z</time>
      </trkpt>
      <trkpt lat="51.229824615874" lon="4.457872359871">
        <ele>0</ele>
        <time>2019-07-23T21:43:51Z</time>
      </trkpt>
      <trkpt lat="51.229888150676" lon="4.457687790433">
        <ele>0</ele>
        <time>2019-07-23T21:44:20Z</time>
      </trkpt>
    </trkseg>
  </trk>
</gpx>